Архив погоды в Дзарджане

Метеограмма Дзарджан
Воскресенье, 10 Июня
Время местн. Темп Ветер Видим Явления Облачность нижн/средн/верх Атм. давл. Влжн Точка росы ВНГО R Сост. почвы Tg s
Напр Скр Прв ур.ст ур.м изм
18:00 +24.2° Ю-З 2 - более 50 км - ясно 752 755 -0.2 23% +1.9° более 2.5 км - - - -
15:00 +22.1° Ю-З 3 - более 50 км - ясно 752 756 -0.3 27% +2.5° более 2.5 км - - - -
12:00 +19.8° Ю-З 3 - более 50 км - ясно 753 756 +0.1 36% +4.5° более 2.5 км - - - -
09:00 +20° С 3 - 50 км - ясно 753 756 +0.5 30% +1.7° более 2.5 км 0 Влажная (без луж) - -
06:00 +17.9° С 2 - 50 км - ясно 752 755 +0.5 51% +7.6° более 2.5 км - - - -
03:00 +12° С 1 - 50 км - ясно 752 755 0 68% +6.2° более 2.5 км - - - -
00:00 +18.1° С 1 - 50 км - ясно 752 755 -0.8 57% +9.5° более 2.5 км - - - -
Суббота, 9 Июня
Время местн. Темп Ветер Видим Явления Облачность нижн/средн/верх Атм. давл. Влжн Точка росы ВНГО R Сост. почвы Tg s
Напр Скр Прв ур.ст ур.м изм
21:00 +24.8° С 2 - 50 км - ясно 752 756 -1.3 21% +0.9° более 2.5 км 0 - - -
18:00 +25.8° С 4 - более 50 км - ясно 754 757 -1.4 19% +0.4° более 2.5 км - - - -
15:00 +25.4° С 5 - более 50 км - ясно 755 758 -1.5 20% +1.1° более 2.5 км - - - -
12:00 +21.8° С 4 - 50 км - ясно 756 760 -1.1 27% +1.9° более 2.5 км - - - -
09:00 +17.2° С 4 - более 50 км - ясно 758 761 -0.8 45% +5.1° более 2.5 км 0 Влажная (без луж) +2° -
06:00 +14° штиль 0 - более 50 км - ясно 758 762 -0.4 59% +6.1° более 2.5 км - - - -
03:00 +11.2° штиль 0 - 50 км - ясно 759 762 -0.7 65% +4.8° более 2.5 км - - - -
00:00 +15.1° С 1 - более 50 км - ясно 759 763 -0.7 45% +3.2° более 2.5 км - - - -
Пятница, 8 Июня
Время местн. Темп Ветер Видим Явления Облачность нижн/средн/верх Атм. давл. Влжн Точка росы ВНГО R Сост. почвы Tg s
Напр Скр Прв ур.ст ур.м изм
21:00 +20.9° С-В 1 - 50 км - ясно 760 764 -1 28% +1.9° более 2.5 км 0 - - -
18:00 +21.8° С 2 - более 50 км - ясно 761 765 -1.1 23% более 2.5 км - - - -
15:00 +20° С 2 - более 50 км - ясно 762 766 -1.1 35% +4° более 2.5 км - - - -
12:00 +16.7° С 3 - более 50 км - ясно 763 767 -0.8 38% +2.3° более 2.5 км - - - -
09:00 +12.5° С 3 - 50 км - ясно 764 768 +0.2 51% +2.7° более 2.5 км 0 Влажная (без луж) - -
06:00 +10.4° С 2 - более 50 км - ясно 764 768 +0.1 61% +3.2° более 2.5 км - - - -
03:00 +8.8° С 2 - 50 км - ясно 764 768 +0.2 68% +3.2° более 2.5 км - - - -
00:00 +12.4° С 3 - 50 км - ясно 764 768 -0.2 54% +3.4° более 2.5 км - - - -
Четверг, 7 Июня
Время местн. Темп Ветер Видим Явления Облачность нижн/средн/верх Атм. давл. Влжн Точка росы ВНГО R Сост. почвы Tg s
Напр Скр Прв ур.ст ур.м изм
21:00 +17.8° С 5 - 50 км - ясно 764 768 +0.6 30% +0.2° более 2.5 км 0 - - -
18:00 +20.6° С 4 - более 50 км - ясно 764 767 +0.3 36% +5° более 2.5 км - - - -
15:00 +20.2° С 5 - более 50 км - ясно 763 767 0 42% +6.8° более 2.5 км - - - -